Time;durP1;ratioP1;P1;durP2;ratioP2;P2;SDS_P1;SDS_P2;PMS_P1;PMS_P2;Temp;Humidity;BMP_temperature;BMP_pressure;BME280_temperature;BME280_humidity;BME280_pressure;Samples;Min_cycle;Max_cycle;Signal;HPM_P1;HPM_P2
2021/07/23 00:00:19;;;;;;;9.98;4.82;;;;;;;12.38;94.07;101872.22;5064676;28;20042;-76
2021/07/23 00:02:45;;;;;;;10.90;4.68;;;;;;;12.31;94.52;101871.09;5060652;28;20852;-75
2021/07/23 00:05:10;;;;;;;7.25;4.22;;;;;;;12.30;94.60;101865.94;5072084;28;20032;-77
2021/07/23 00:07:36;;;;;;;7.80;4.75;;;;;;;12.27;94.96;101873.13;5089848;28;20027;-77
2021/07/23 00:10:02;;;;;;;9.27;4.25;;;;;;;12.29;95.51;101870.38;5051408;28;20032;-75
2021/07/23 00:12:28;;;;;;;6.30;4.35;;;;;;;12.19;95.85;101872.97;5072134;28;20077;-76
2021/07/23 00:14:53;;;;;;;11.75;4.68;;;;;;;12.16;95.94;101877.63;5072114;28;20049;-76
2021/07/23 00:17:19;;;;;;;8.60;4.70;;;;;;;12.16;95.84;101870.56;5051978;28;20039;-76
2021/07/23 00:19:44;;;;;;;7.82;4.63;;;;;;;12.15;95.97;101868.94;5053609;28;20040;-77
2021/07/23 00:22:10;;;;;;;7.20;4.10;;;;;;;12.15;96.17;101873.34;5054703;28;20035;-76
2021/07/23 00:24:35;;;;;;;8.98;4.25;;;;;;;12.08;96.37;101873.84;5070823;28;20645;-77
2021/07/23 00:27:01;;;;;;;8.38;4.55;;;;;;;12.04;96.95;101871.63;5066572;28;20063;-77
2021/07/23 00:29:27;;;;;;;6.88;4.72;;;;;;;12.06;96.62;101867.06;5088595;28;20479;-76
2021/07/23 00:31:53;;;;;;;9.13;4.70;;;;;;;12.03;96.39;101865.50;5078231;28;20378;-76
2021/07/23 00:34:18;;;;;;;7.60;4.95;;;;;;;12.07;97.29;101863.47;5068425;28;20039;-76
2021/07/23 00:36:44;;;;;;;10.07;4.85;;;;;;;12.12;97.63;101868.34;5092188;28;20706;-77
2021/07/23 00:39:11;;;;;;;10.10;4.60;;;;;;;12.10;97.87;101862.38;5075932;28;20031;-76
2021/07/23 00:41:37;;;;;;;7.43;4.28;;;;;;;12.11;96.49;101869.28;5092634;28;20463;-76
2021/07/23 00:44:03;;;;;;;6.30;4.65;;;;;;;12.14;96.97;101858.53;5056216;28;20024;-77
2021/07/23 00:46:31;;;;;;;7.57;4.40;;;;;;;12.23;96.89;101863.00;5073745;28;20039;-76
2021/07/23 00:48:57;;;;;;;12.38;4.55;;;;;;;12.26;97.11;101860.97;5076598;28;20107;-77
2021/07/23 00:51:23;;;;;;;8.52;5.15;;;;;;;12.32;98.05;101856.13;5056935;28;20150;-77
2021/07/23 00:53:50;;;;;;;11.73;5.47;;;;;;;12.50;98.40;101856.34;5073648;28;20042;-78
2021/07/23 00:56:17;;;;;;;11.60;5.13;;;;;;;12.57;98.38;101858.31;5058237;28;20028;-78
2021/07/23 00:58:43;;;;;;;8.10;5.28;;;;;;;12.68;98.01;101857.41;5065426;28;20035;-76
2021/07/23 01:01:09;;;;;;;7.93;4.93;;;;;;;12.69;97.87;101861.69;5057704;28;20038;-77
2021/07/23 01:03:36;;;;;;;11.45;5.38;;;;;;;12.61;97.40;101856.25;5070849;28;20485;-76
2021/07/23 01:06:02;;;;;;;6.70;4.78;;;;;;;12.65;97.95;101862.94;5059664;28;20085;-75
2021/07/23 01:08:31;;;;;;;9.57;4.82;;;;;;;12.62;97.53;101855.28;5055270;28;20040;-74
2021/07/23 01:10:56;;;;;;;10.50;5.20;;;;;;;12.63;97.86;101852.53;5055991;28;20421;-75
2021/07/23 01:13:45;;;;;;;6.70;4.40;;;;;;;12.68;97.78;101860.03;5049553;28;20546;-77
2021/07/23 01:16:12;;;;;;;9.80;4.82;;;;;;;12.71;98.19;101857.13;5055513;28;20097;-77
2021/07/23 01:18:38;;;;;;;10.25;5.20;;;;;;;12.74;97.62;101866.56;5055592;28;20056;-77
2021/07/23 01:21:05;;;;;;;9.45;5.47;;;;;;;12.78;97.44;101854.81;5058064;28;20506;-77
2021/07/23 01:23:33;;;;;;;11.00;5.47;;;;;;;12.87;97.73;101848.75;5059901;28;20097;-76
2021/07/23 01:26:04;;;;;;;11.07;5.28;;;;;;;12.92;97.50;101850.94;5075971;28;20031;-77
2021/07/23 01:28:34;;;;;;;9.05;4.90;;;;;;;13.04;96.87;101855.16;5077510;28;20496;-75
2021/07/23 01:31:04;;;;;;;9.10;5.40;;;;;;;13.11;97.02;101851.00;5059743;28;20036;-75
2021/07/23 01:33:35;;;;;;;8.57;5.30;;;;;;;13.16;96.33;101843.50;5062504;28;20039;-76
2021/07/23 01:36:01;;;;;;;7.85;4.78;;;;;;;13.22;95.90;101853.53;5054857;28;20047;-77
2021/07/23 01:38:32;;;;;;;10.07;5.22;;;;;;;13.23;95.81;101847.28;5057320;28;20039;-76
2021/07/23 01:40:57;;;;;;;10.45;5.00;;;;;;;13.23;96.26;101847.28;5058647;28;20035;-76
2021/07/23 01:43:24;;;;;;;8.48;4.78;;;;;;;13.28;96.60;101846.03;5054199;28;20382;-77
2021/07/23 01:45:53;;;;;;;10.50;4.70;;;;;;;13.25;96.80;101836.59;5057582;28;20036;-78
2021/07/23 01:48:37;;;;;;;8.60;4.97;;;;;;;13.20;96.93;101837.03;5111396;28;20067;-78
2021/07/23 01:51:08;;;;;;;7.35;4.53;;;;;;;13.21;97.12;101843.13;5068732;28;20101;-77
2021/07/23 01:53:34;;;;;;;9.70;5.15;;;;;;;13.17;97.58;101839.94;5055727;28;20036;-77
2021/07/23 01:56:01;;;;;;;6.90;4.72;;;;;;;13.11;97.02;101823.81;5074856;28;20523;-76
2021/07/23 01:58:30;;;;;;;7.70;4.38;;;;;;;13.19;97.00;101839.78;5059890;28;20031;-78
2021/07/23 02:00:58;;;;;;;10.68;5.20;;;;;;;13.24;96.35;101834.91;5076501;28;20295;-78
2021/07/23 02:03:27;;;;;;;7.97;5.30;;;;;;;13.34;95.43;101838.44;5056018;28;20028;-77
2021/07/23 02:05:53;;;;;;;6.65;4.75;;;;;;;13.39;95.16;101843.28;5067111;28;20065;-77
2021/07/23 02:08:19;;;;;;;10.32;5.18;;;;;;;13.44;94.79;101839.28;5059148;28;20031;-77
2021/07/23 02:10:44;;;;;;;11.88;5.30;;;;;;;13.47;94.11;101840.81;5059837;28;20036;-77
2021/07/23 02:13:11;;;;;;;8.88;4.95;;;;;;;13.49;94.65;101836.22;5059381;28;20386;-77
2021/07/23 02:15:38;;;;;;;8.65;4.97;;;;;;;13.46;94.98;101831.22;5059037;28;20113;-77
2021/07/23 02:18:06;;;;;;;10.25;4.72;;;;;;;13.46;95.09;101838.31;5075867;28;20124;-78
2021/07/23 02:20:34;;;;;;;8.63;4.80;;;;;;;13.44;95.04;101835.81;5092291;28;20039;-78
2021/07/23 02:23:01;;;;;;;8.80;5.07;;;;;;;13.42;94.95;101833.31;5072324;28;20047;-76
2021/07/23 02:25:41;;;;;;;7.60;4.70;;;;;;;13.37;95.38;101830.28;5060380;28;20480;-77
2021/07/23 02:28:07;;;;;;;11.27;5.38;;;;;;;13.40;96.51;101834.44;5084086;28;20061;-77
2021/07/23 02:30:35;;;;;;;6.97;5.07;;;;;;;13.44;97.17;101833.16;5053704;28;20109;-76
2021/07/23 02:33:18;;;;;;;8.93;5.30;;;;;;;13.39;97.51;101833.59;5073524;28;20024;-76
2021/07/23 02:35:44;;;;;;;10.38;5.35;;;;;;;13.40;98.05;101829.97;5058990;28;20050;-78
2021/07/23 02:38:12;;;;;;;8.15;5.63;;;;;;;13.43;97.35;101831.53;5089349;28;20125;-77
2021/07/23 02:40:39;;;;;;;11.50;5.78;;;;;;;13.50;97.75;101829.16;5056240;28;20024;-77
2021/07/23 02:43:05;;;;;;;9.27;5.63;;;;;;;13.45;98.95;101829.59;5056593;27;20050;-77
2021/07/23 02:45:36;;;;;;;8.97;5.93;;;;;;;13.55;99.63;101835.66;5051562;28;20032;-78
2021/07/23 02:48:03;;;;;;;11.38;5.93;;;;;;;13.47;100.00;101835.53;5074366;28;20090;-77
2021/07/23 02:50:30;;;;;;;11.30;6.80;;;;;;;13.59;100.00;101834.41;5074088;28;20052;-76
2021/07/23 02:52:56;;;;;;;9.60;6.60;;;;;;;13.52;100.00;101828.03;5075007;28;20035;-77
2021/07/23 02:55:22;;;;;;;10.88;6.18;;;;;;;13.51;100.00;101828.19;5072289;28;20043;-77
2021/07/23 02:57:51;;;;;;;9.43;5.80;;;;;;;13.49;100.00;101828.31;5092745;28;20039;-75
2021/07/23 03:00:25;;;;;;;10.38;6.13;;;;;;;13.58;100.00;101826.63;5071632;28;20096;-77
2021/07/23 03:02:53;;;;;;;10.27;5.70;;;;;;;13.66;100.00;101824.16;5075826;28;20468;-77
2021/07/23 03:05:19;;;;;;;7.88;5.90;;;;;;;13.64;100.00;101815.56;5056373;28;20035;-77
2021/07/23 03:07:44;;;;;;;6.70;5.50;;;;;;;13.67;100.00;101819.72;5072097;28;20066;-78
2021/07/23 03:10:12;;;;;;;14.18;5.28;;;;;;;13.72;100.00;101822.75;5056385;28;20035;-77
2021/07/23 03:12:39;;;;;;;8.63;5.80;;;;;;;13.69;100.00;101821.22;5052511;28;20024;-78
2021/07/23 03:15:06;;;;;;;9.02;5.63;;;;;;;13.70;100.00;101822.06;5055403;28;20027;-77
2021/07/23 03:17:31;;;;;;;11.48;5.85;;;;;;;13.74;100.00;101818.19;5050929;28;20039;-77
2021/07/23 03:20:05;;;;;;;8.27;6.18;;;;;;;13.75;100.00;101822.47;5054507;28;20039;-78
2021/07/23 03:22:31;;;;;;;11.88;7.05;;;;;;;13.77;100.00;101826.66;5056134;28;20409;-78
2021/07/23 03:25:00;;;;;;;11.50;7.45;;;;;;;13.78;100.00;101825.66;5054368;28;20020;-76
2021/07/23 03:27:58;;;;;;;13.23;6.93;;;;;;;13.71;100.00;101824.56;5058766;28;20039;-76
2021/07/23 03:30:34;;;;;;;10.52;6.43;;;;;;;13.63;100.00;101824.44;5056052;28;20028;-77
2021/07/23 03:33:02;;;;;;;12.63;6.78;;;;;;;13.60;100.00;101819.44;5056406;28;20456;-76
2021/07/23 03:35:28;;;;;;;11.88;6.28;;;;;;;13.56;100.00;101818.03;5051881;28;20024;-75
2021/07/23 03:37:57;;;;;;;11.13;6.97;;;;;;;13.47;100.00;101814.47;5085935;28;20113;-76
2021/07/23 03:40:27;;;;;;;10.82;6.15;;;;;;;13.46;100.00;101817.22;5096553;28;20027;-77
2021/07/23 03:42:55;;;;;;;10.52;6.18;;;;;;;13.42;100.00;101814.84;5072680;28;20528;-77
2021/07/23 03:45:25;;;;;;;8.30;5.88;;;;;;;13.37;100.00;101806.56;5055704;28;20036;-77
2021/07/23 03:48:00;;;;;;;9.02;6.40;;;;;;;13.40;100.00;101806.25;5059995;28;20035;-77
2021/07/23 03:50:29;;;;;;;10.32;6.90;;;;;;;13.36;100.00;101806.69;5068491;28;20519;-77
2021/07/23 03:52:58;;;;;;;11.27;6.68;;;;;;;13.33;100.00;101817.50;5053447;28;20031;-77
2021/07/23 03:55:42;;;;;;;11.13;7.10;;;;;;;13.36;100.00;101814.59;5073824;28;20039;-76
2021/07/23 03:58:10;;;;;;;10.82;6.50;;;;;;;13.38;100.00;101824.03;5072793;28;20093;-76
2021/07/23 04:00:38;;;;;;;12.32;7.32;;;;;;;13.35;100.00;101819.00;5070119;28;20122;-76
2021/07/23 04:03:03;;;;;;;9.30;7.00;;;;;;;13.31;100.00;101820.25;5054561;28;20114;-76
2021/07/23 04:05:29;;;;;;;11.13;7.10;;;;;;;13.34;100.00;101817.38;5088562;28;20496;-75
2021/07/23 04:08:00;;;;;;;9.82;7.43;;;;;;;13.37;100.00;101816.25;5055657;28;20027;-76
2021/07/23 04:10:28;;;;;;;13.77;7.60;;;;;;;13.37;100.00;101814.47;5054390;28;20035;-76
2021/07/23 04:12:53;;;;;;;12.95;7.88;;;;;;;13.36;100.00;101818.06;5075924;28;20027;-76
2021/07/23 04:15:20;;;;;;;15.70;8.05;;;;;;;13.35;100.00;101816.38;5060486;28;20031;-76
2021/07/23 04:18:06;;;;;;;12.30;7.88;;;;;;;13.38;100.00;101821.38;5095680;28;20039;-75
2021/07/23 04:20:33;;;;;;;13.45;8.15;;;;;;;13.38;100.00;101829.28;5058530;28;20459;-76
2021/07/23 04:22:59;;;;;;;16.75;8.85;;;;;;;13.38;100.00;101818.75;5057608;28;20059;-76
2021/07/23 04:25:25;;;;;;;10.80;7.63;;;;;;;13.42;100.00;101819.31;5062043;28;20121;-76
2021/07/23 04:27:51;;;;;;;14.77;8.73;;;;;;;13.44;100.00;101812.09;5087086;28;20196;-77
2021/07/23 04:30:24;;;;;;;16.27;9.23;;;;;;;13.47;100.00;101818.88;5077014;28;20471;-76
2021/07/23 04:33:13;;;;;;;11.68;8.48;;;;;;;13.48;100.00;101818.75;5069972;28;20096;-77
2021/07/23 04:35:49;;;;;;;15.13;8.30;;;;;;;13.47;100.00;101811.81;5060497;28;20495;-76
2021/07/23 04:38:16;;;;;;;13.70;7.75;;;;;;;13.52;100.00;101819.28;5075689;28;20051;-77
2021/07/23 04:40:43;;;;;;;12.15;8.05;;;;;;;13.53;100.00;101819.16;5058706;28;20055;-75
2021/07/23 04:43:16;;;;;;;14.25;7.78;;;;;;;13.53;100.00;101816.53;5060361;27;20031;-76
2021/07/23 04:45:43;;;;;;;12.15;8.50;;;;;;;13.58;100.00;101826.63;5068104;28;20039;-74
2021/07/23 04:48:09;;;;;;;15.30;8.68;;;;;;;13.65;100.00;101826.94;5058595;28;20032;-76
2021/07/23 04:50:55;;;;;;;17.80;8.02;;;;;;;13.66;100.00;101823.34;5064598;28;20046;-78
2021/07/23 04:53:39;;;;;;;12.23;8.48;;;;;;;13.80;100.00;101822.88;5077498;28;20685;-75
2021/07/23 04:56:28;;;;;;;13.75;8.82;;;;;;;13.80;100.00;101813.16;5084393;27;20039;-75
2021/07/23 04:58:53;;;;;;;10.82;8.00;;;;;;;13.79;100.00;101816.78;5096437;27;20034;-77
2021/07/23 05:01:19;;;;;;;14.30;8.68;;;;;;;13.79;100.00;101814.16;5065062;28;20043;-77
2021/07/23 05:03:44;;;;;;;13.35;9.18;;;;;;;13.92;100.00;101824.41;5091432;28;20099;-76
2021/07/23 05:06:12;;;;;;;13.88;8.25;;;;;;;13.86;100.00;101824.94;5065715;28;20043;-75
2021/07/23 05:08:38;;;;;;;11.60;8.30;;;;;;;13.87;100.00;101813.44;5070028;28;20031;-77
2021/07/23 05:11:13;;;;;;;14.63;8.48;;;;;;;13.88;100.00;101819.53;5076180;28;20039;-77
2021/07/23 05:13:40;;;;;;;10.82;7.63;;;;;;;13.87;100.00;101818.72;5056864;28;20024;-76
2021/07/23 05:16:08;;;;;;;17.30;8.68;;;;;;;13.94;100.00;101825.09;5074246;28;20465;-78
2021/07/23 05:18:37;;;;;;;16.98;8.85;;;;;;;14.02;100.00;101819.91;5058389;28;20065;-76
2021/07/23 05:21:05;;;;;;;13.02;8.80;;;;;;;14.12;100.00;101819.06;5059172;27;20116;-77
2021/07/23 05:23:31;;;;;;;16.70;8.32;;;;;;;14.26;100.00;101815.13;5094981;27;20035;-78
2021/07/23 05:25:58;;;;;;;13.13;8.25;;;;;;;14.26;100.00;101820.41;5076758;28;20088;-78
2021/07/23 05:28:23;;;;;;;13.85;8.35;;;;;;;14.34;100.00;101816.06;5093090;28;20043;-75
2021/07/23 05:30:49;;;;;;;13.90;6.70;;;;;;;14.47;100.00;101818.38;5074834;28;20090;-77
2021/07/23 05:33:14;;;;;;;13.48;7.30;;;;;;;14.62;100.00;101807.34;5072321;28;20024;-77
2021/07/23 05:35:40;;;;;;;11.35;6.60;;;;;;;14.77;100.00;101809.38;5057706;28;20089;-77
2021/07/23 05:38:13;;;;;;;10.63;7.20;;;;;;;14.87;100.00;101821.69;5060621;28;20060;-77
2021/07/23 05:40:39;;;;;;;9.63;5.20;;;;;;;14.89;98.22;101812.63;5075078;28;20140;-76
2021/07/23 05:43:04;;;;;;;8.23;4.05;;;;;;;14.92;96.51;101812.34;5073889;28;20669;-74
2021/07/23 05:45:30;;;;;;;5.55;3.95;;;;;;;14.98;94.90;101817.00;5075201;28;20115;-76
2021/07/23 05:47:55;;;;;;;5.65;3.92;;;;;;;15.08;94.54;101814.31;5053105;28;20036;-76
2021/07/23 05:50:21;;;;;;;7.63;4.30;;;;;;;14.97;93.12;101822.44;5047042;28;20762;-77
2021/07/23 05:52:46;;;;;;;7.47;4.00;;;;;;;14.92;92.31;101814.16;5057082;28;20114;-75
2021/07/23 05:55:12;;;;;;;7.95;3.90;;;;;;;14.93;92.78;101818.44;5050901;28;20119;-77
2021/07/23 05:57:37;;;;;;;6.68;3.70;;;;;;;14.99;93.83;101815.19;5053692;28;20035;-75
2021/07/23 06:00:05;;;;;;;6.25;3.65;;;;;;;15.04;92.44;101817.41;5053465;28;20165;-76
2021/07/23 06:02:39;;;;;;;5.40;3.65;;;;;;;15.11;92.74;101814.00;5075317;28;20028;-76
2021/07/23 06:05:05;;;;;;;4.43;3.75;;;;;;;15.13;93.40;101819.97;5057603;28;20047;-76
2021/07/23 06:07:31;;;;;;;6.95;3.17;;;;;;;15.12;92.14;101825.41;5074422;28;20069;-76
2021/07/23 06:09:56;;;;;;;6.13;3.25;;;;;;;15.10;89.73;101808.88;5073764;28;20116;-75
2021/07/23 06:12:22;;;;;;;5.82;2.63;;;;;;;15.21;89.28;101816.56;5057467;28;20035;-77
2021/07/23 06:14:47;;;;;;;4.75;2.83;;;;;;;15.19;88.92;101819.38;5052189;28;20023;-76
2021/07/23 06:17:13;;;;;;;5.68;2.97;;;;;;;15.18;89.90;101816.88;5067402;28;20043;-77
2021/07/23 06:19:38;;;;;;;6.60;3.33;;;;;;;15.29;89.38;101818.47;5072550;28;20085;-76
2021/07/23 06:22:05;;;;;;;4.35;3.10;;;;;;;15.35;88.82;101808.13;5072719;28;20032;-77
2021/07/23 06:24:32;;;;;;;5.13;2.80;;;;;;;15.46;87.98;101820.25;5075142;28;20044;-76
2021/07/23 06:26:57;;;;;;;4.85;2.95;;;;;;;15.40;88.45;101820.06;5076915;28;20039;-77
2021/07/23 06:29:23;;;;;;;6.60;2.83;;;;;;;15.40;88.68;101825.34;5073136;27;20503;-75
2021/07/23 06:31:49;;;;;;;4.68;2.78;;;;;;;15.38;88.40;101823.66;5058186;28;20047;-77
2021/07/23 06:34:14;;;;;;;5.20;2.78;;;;;;;15.38;88.77;101825.50;5072204;28;20463;-77
2021/07/23 06:36:40;;;;;;;6.63;3.35;;;;;;;15.28;88.83;101830.84;5070989;28;20451;-77
2021/07/23 06:39:05;;;;;;;6.18;3.15;;;;;;;15.12;87.31;101828.03;5054723;28;20040;-73
2021/07/23 06:41:32;;;;;;;4.78;2.95;;;;;;;15.13;88.03;101832.38;5050089;28;20031;-77
2021/07/23 06:43:58;;;;;;;5.95;3.28;;;;;;;15.09;89.80;101834.47;5050086;28;20495;-75
2021/07/23 06:46:23;;;;;;;5.60;2.90;;;;;;;15.05;88.88;101825.19;5087722;28;20683;-76
2021/07/23 06:48:49;;;;;;;5.63;3.10;;;;;;;15.05;89.82;101829.63;5073940;28;20071;-77
2021/07/23 06:51:15;;;;;;;5.55;3.30;;;;;;;15.04;88.34;101831.44;5071358;28;20641;-75
2021/07/23 06:53:40;;;;;;;5.15;3.45;;;;;;;15.11;89.92;101829.88;5038253;28;20039;-75
2021/07/23 06:56:06;;;;;;;5.38;3.28;;;;;;;15.07;89.31;101828.50;5064670;28;20039;-77
2021/07/23 06:58:31;;;;;;;4.43;3.13;;;;;;;15.11;88.06;101832.50;5059324;28;20032;-77
2021/07/23 07:01:07;;;;;;;7.00;3.53;;;;;;;15.12;88.83;101830.69;5091885;28;20035;-77
2021/07/23 07:03:33;;;;;;;6.47;3.40;;;;;;;15.14;88.27;101826.94;5049862;28;20032;-77
2021/07/23 07:05:59;;;;;;;5.30;3.78;;;;;;;15.18;90.25;101833.56;5074190;28;20054;-77
2021/07/23 07:08:25;;;;;;;5.32;3.40;;;;;;;15.21;90.41;101827.16;5052483;28;20056;-78
2021/07/23 07:10:50;;;;;;;5.28;3.78;;;;;;;15.27;90.12;101834.47;5089321;28;20036;-76
2021/07/23 07:13:16;;;;;;;9.07;3.85;;;;;;;15.23;87.26;101829.66;5063035;28;20032;-75
2021/07/23 07:15:42;;;;;;;8.13;4.57;;;;;;;15.31;88.86;101837.66;5071186;28;20063;-77
2021/07/23 07:18:07;;;;;;;7.00;3.88;;;;;;;15.36;88.81;101843.31;5054016;28;20020;-77
2021/07/23 07:20:33;;;;;;;7.38;3.95;;;;;;;15.43;88.78;101828.50;5065900;28;20047;-77
2021/07/23 07:23:00;;;;;;;5.70;4.10;;;;;;;15.47;86.43;101840.44;5089387;28;20060;-75
2021/07/23 07:25:27;;;;;;;7.00;4.20;;;;;;;15.53;86.75;101839.81;5055926;28;20397;-76
2021/07/23 07:27:53;;;;;;;5.10;4.20;;;;;;;15.61;85.63;101839.06;5072833;28;20071;-76
2021/07/23 07:30:19;;;;;;;9.18;4.45;;;;;;;15.68;84.63;101852.53;5055561;28;20647;-76
2021/07/23 07:32:45;;;;;;;10.85;4.68;;;;;;;15.65;83.26;101836.94;5057703;28;20031;-77
2021/07/23 07:35:11;;;;;;;6.68;4.13;;;;;;;15.71;85.22;101846.94;5085250;28;20059;-77
2021/07/23 07:37:37;;;;;;;7.57;4.53;;;;;;;15.84;87.35;101849.19;5059751;28;20088;-77
2021/07/23 07:40:04;;;;;;;5.90;4.40;;;;;;;15.89;85.93;101853.03;5057274;28;20431;-76
2021/07/23 07:42:30;;;;;;;7.28;3.90;;;;;;;15.98;82.72;101853.09;5074624;28;20036;-77
2021/07/23 07:44:59;;;;;;;6.20;4.60;;;;;;;15.90;80.96;101851.25;5056420;28;20489;-77
2021/07/23 07:47:25;;;;;;;9.38;3.90;;;;;;;16.04;81.56;101848.00;5073976;28;20036;-75
2021/07/23 07:49:51;;;;;;;10.30;4.22;;;;;;;16.17;83.98;101858.19;5056756;28;20097;-76
2021/07/23 07:52:19;;;;;;;9.15;4.60;;;;;;;16.22;81.39;101845.31;5074203;28;20036;-77
2021/07/23 07:54:48;;;;;;;7.22;4.70;;;;;;;16.30;80.67;101842.72;5056946;28;20031;-77
2021/07/23 07:57:14;;;;;;;9.35;4.50;;;;;;;16.34;80.86;101845.88;5073747;28;20028;-79
2021/07/23 07:59:39;;;;;;;6.38;4.20;;;;;;;16.38;80.02;101849.84;5074491;28;20042;-78
2021/07/23 08:02:09;;;;;;;7.28;4.18;;;;;;;16.40;79.91;101855.00;5069669;28;20043;-76
2021/07/23 08:04:36;;;;;;;7.63;4.32;;;;;;;16.23;79.57;101846.97;5100219;28;20027;-76
2021/07/23 08:07:06;;;;;;;7.13;4.20;;;;;;;16.25;79.21;101841.53;5059919;28;20059;-77
2021/07/23 08:09:46;;;;;;;9.18;4.32;;;;;;;16.27;79.38;101842.19;5072108;28;20032;-75
2021/07/23 08:12:12;;;;;;;8.13;4.53;;;;;;;16.36;80.83;101846.53;5055520;28;20063;-76
2021/07/23 08:14:37;;;;;;;4.57;3.85;;;;;;;16.43;79.89;101838.81;5067252;28;20070;-76
2021/07/23 08:17:03;;;;;;;10.23;4.22;;;;;;;16.57;78.92;101834.72;5075627;28;20043;-78
2021/07/23 08:19:29;;;;;;;8.60;4.40;;;;;;;16.67;81.28;101841.56;5092323;28;20118;-76
2021/07/23 08:21:54;;;;;;;10.68;4.70;;;;;;;16.64;79.31;101841.03;5074737;28;20058;-76
2021/07/23 08:24:20;;;;;;;7.45;4.45;;;;;;;16.57;78.10;101842.66;5053653;28;20070;-76
2021/07/23 08:26:46;;;;;;;7.05;4.32;;;;;;;16.70;77.89;101830.63;5102339;28;20069;-76
2021/07/23 08:29:11;;;;;;;12.85;4.25;;;;;;;16.76;77.27;101828.34;5075351;28;20055;-76
2021/07/23 08:31:37;;;;;;;6.50;3.97;;;;;;;16.84;78.05;101820.44;5058587;28;20039;-78
2021/07/23 08:34:02;;;;;;;11.07;4.07;;;;;;;16.87;78.08;101823.59;5071599;28;20382;-76
2021/07/23 08:36:28;;;;;;;5.20;3.80;;;;;;;16.98;76.10;101826.94;5057541;28;20552;-77
2021/07/23 08:38:54;;;;;;;6.80;4.20;;;;;;;16.96;75.25;101824.44;5093074;28;20066;-75
2021/07/23 08:41:20;;;;;;;5.97;3.95;;;;;;;16.99;76.58;101834.75;5074869;28;20031;-76
2021/07/23 08:43:46;;;;;;;8.88;4.20;;;;;;;17.09;79.07;101837.25;5079045;28;20073;-76
2021/07/23 08:46:13;;;;;;;5.75;3.50;;;;;;;17.08;77.54;101843.53;5075757;28;20086;-78
2021/07/23 08:48:39;;;;;;;7.18;3.90;;;;;;;17.03;77.49;101833.41;5075815;28;20107;-75
2021/07/23 08:51:04;;;;;;;9.45;3.60;;;;;;;17.16;77.78;101835.59;5066618;28;20118;-77
2021/07/23 08:53:30;;;;;;;5.55;3.65;;;;;;;17.30;76.32;101831.47;5073705;28;20138;-76
2021/07/23 08:55:56;;;;;;;12.00;4.28;;;;;;;17.39;74.38;101835.78;5056536;28;20038;-76
2021/07/23 08:58:21;;;;;;;5.05;3.50;;;;;;;17.44;74.34;101822.88;5092457;28;20051;-75
2021/07/23 09:00:47;;;;;;;15.63;4.13;;;;;;;17.69;76.51;101830.81;5061849;28;20737;-77
2021/07/23 09:03:12;;;;;;;8.60;3.58;;;;;;;17.87;73.67;101836.78;5057042;28;20048;-78
2021/07/23 09:05:42;;;;;;;4.95;3.05;;;;;;;18.04;73.60;101834.91;5077111;28;20028;-77
2021/07/23 09:08:07;;;;;;;6.07;3.17;;;;;;;18.14;72.36;101844.53;5077849;28;20646;-75
2021/07/23 09:10:34;;;;;;;7.35;3.40;;;;;;;18.22;72.66;101836.56;5074861;28;20047;-76
2021/07/23 09:13:02;;;;;;;7.30;3.53;;;;;;;18.16;73.01;101837.22;5070182;28;20035;-77
2021/07/23 09:15:37;;;;;;;5.32;3.00;;;;;;;17.92;72.45;101838.94;5076607;28;20032;-77
2021/07/23 09:18:05;;;;;;;7.07;3.20;;;;;;;17.83;71.46;101838.06;5060756;28;20047;-78
2021/07/23 09:20:39;;;;;;;10.50;3.20;;;;;;;17.82;73.96;101840.91;5068334;28;20071;-76
2021/07/23 09:23:05;;;;;;;5.70;3.30;;;;;;;17.60;72.65;101847.72;5056939;28;20815;-77
2021/07/23 09:25:36;;;;;;;5.93;3.80;;;;;;;17.48;76.28;101833.97;5078677;28;20074;-75
2021/07/23 09:28:21;;;;;;;4.85;3.38;;;;;;;17.36;75.08;101824.69;5058666;28;20066;-76
2021/07/23 09:30:47;;;;;;;6.43;3.60;;;;;;;17.38;76.00;101830.63;5089465;28;20562;-77
2021/07/23 09:33:13;;;;;;;5.57;3.88;;;;;;;17.43;75.64;101833.63;5063210;27;20024;-76
